Nearby METAR Reports

Aktualna pogoda na lotniskach (dane METAR)

 

EPGD - Gdansk/Rebiechow, Poland
Distance from station: ENE 27mi, 44km
Updated: Sat, 12-Jun-2021 4:30am PDT
Light rain, Showers, Few clouds
Light rain, Showers, Few clouds
 Wind from W
Wind: W 10 mph , 17 km/h
Temperature: 55°F , 13°C
Dew Point: 54°F , 12°C
Humidity: 94%
Barometer: 29.8 inHg , 1009 hPa
Summary: Light rain, Showers
Clouds: Few Clouds
Visibility: 6 miles , 10 km
Cloud details: Few Clouds 1000 ft
2021/06/12 11:30 EPGD 121130Z 28009KT 9999 -SHRA FEW010TCU 13/12 Q1009
EPSC - Szczecin/Golenio, Poland
Distance from station: WSW 128mi, 205km
Updated: Sat, 12-Jun-2021 4:30am PDT
Few Clouds
Few Clouds
 Wind from W
Wind: W 12 mph , 19 km/h
Temperature: 68°F , 20°C
Dew Point: 55°F , 13°C
Humidity: 64%
Barometer: 29.85 inHg , 1011 hPa
Clouds: Few Clouds
Visibility: 6 miles , 10 km
Cloud details: Few Clouds 2900 ft
2021/06/12 11:30 EPSC 121130Z 26010KT 9999 FEW029 20/13 Q1011
 
EPPO - Poznan/Lawica, Poland
Distance from station: SSW 131mi, 210km
Updated: Sat, 12-Jun-2021 4:30am PDT
Partly Cloudy
Partly Cloudy
 Wind from WSW
Wind: WSW 8 mph , 13 km/h
Temperature: 68°F , 20°C
Dew Point: 63°F , 17°C
Humidity: 83%
Barometer: 29.88 inHg , 1012 hPa
Clouds: Partly Cloudy
Visibility: 6 miles , 10 km
Cloud details: Partly Cloudy 4000 ft
2021/06/12 11:30 EPPO 121130Z 24007KT 9999 SCT040 20/17 Q1012
EPLL - Lodz/Lublinek, Poland
Distance from station: SSE 184mi, 296km
Updated: Sat, 12-Jun-2021 4:30am PDT
Partly Cloudy
Partly Cloudy
 Wind from SW
Wind: SW 13 mph , 20 km/h
Temperature: 77°F , 25°C
Dew Point: 54°F , 12°C
Humidity: 44%
Barometer: 29.85 inHg , 1011 hPa
Clouds: Partly Cloudy
Visibility: 6 miles , 10 km
Cloud details: Partly Cloudy 5000 ft
2021/06/12 11:30 EPLL 121130Z 23011KT 9999 SCT050CB 25/12 Q1011
 
EPWA - Warsaw/Okecie, Poland
Distance from station: SE 191mi, 307km
Updated: Sat, 12-Jun-2021 4:30am PDT
Few Clouds
Few Clouds
 Wind from SSW
Wind: SSW 10 mph , 17 km/h
Temperature: 75°F , 24°C
Dew Point: 57°F , 14°C
Humidity: 54%
Barometer: 29.83 inHg , 1010 hPa
Clouds: Few Clouds
Visibility: 6 miles , 10 km
Cloud details: Few Clouds 5000 ft
2021/06/12 11:30 EPWA 121130Z 20009KT 160V230 9999 FEW050CB 24/14 Q1010 NOSIG
EPWR - Wroclaw/Strachow, Poland
Distance from station: S 219mi, 352km
Updated: Sat, 12-Jun-2021 4:30am PDT
Light thunderstorm, Rain, Mostly cloudy
Light thunderstorm, Rain, Mostly cloudy
 Wind from NNW
Wind: NNW 23 mph , 37 km/h, Gust: 35 mph , 56 km/h
Temperature: 64°F , 18°C
Dew Point: 61°F , 16°C
Humidity: 88%
Barometer: 29.94 inHg , 1014 hPa
Summary: Light thunderstorm, Rain
Clouds: Mostly Cloudy
Visibility: 3 miles , 5 km
Cloud details: Mostly Cloudy 3000 ft
2021/06/12 11:30 EPWR 121130Z 33020G30KT 4500 -TSRA BKN030CB 18/16 Q1014

Metar display script from Saratoga-Weather.org